createdAt,value
2022-10-31T00:01:12.197Z,10.30
2022-10-31T00:03:39.089Z,10.40
2022-10-31T00:06:05.994Z,10.30
2022-10-31T00:08:32.858Z,10.40
2022-10-31T00:10:59.730Z,10.30
2022-10-31T00:13:26.586Z,10.50
2022-10-31T00:15:53.466Z,10.60
2022-10-31T00:18:20.343Z,10.70
2022-10-31T00:20:47.219Z,10.70
2022-10-31T00:23:14.082Z,10.60
2022-10-31T00:25:41.771Z,10.60
2022-10-31T00:28:11.629Z,10.70
2022-10-31T00:30:38.527Z,10.70
2022-10-31T00:33:06.361Z,10.70
2022-10-31T00:35:33.719Z,10.70
2022-10-31T00:38:00.570Z,10.80
2022-10-31T00:40:27.525Z,10.80
2022-10-31T00:42:54.518Z,10.80
2022-10-31T00:45:21.404Z,10.70
2022-10-31T00:47:48.489Z,10.70
2022-10-31T00:50:15.417Z,10.60
2022-10-31T00:52:42.313Z,10.60
2022-10-31T00:55:09.228Z,10.60
2022-10-31T00:57:36.113Z,10.40
2022-10-31T01:00:03.744Z,10.40
2022-10-31T01:02:30.696Z,10.30
2022-10-31T01:04:57.670Z,10.40
2022-10-31T01:07:24.543Z,10.30
2022-10-31T01:09:51.427Z,10.20
2022-10-31T01:12:18.345Z,10.10
2022-10-31T01:14:48.301Z,10.10
2022-10-31T01:17:15.519Z,10.10
2022-10-31T01:19:42.358Z,10.10
2022-10-31T01:22:09.254Z,10.20
2022-10-31T01:24:36.101Z,10.10
2022-10-31T01:27:03.105Z,10.20
2022-10-31T01:29:30.024Z,10.50
2022-10-31T01:31:56.867Z,10.50
2022-10-31T01:34:23.744Z,10.50
2022-10-31T01:36:52.437Z,10.60
2022-10-31T01:39:20.435Z,10.50
2022-10-31T01:41:52.287Z,10.40
2022-10-31T01:44:19.086Z,10.40
2022-10-31T01:47:00.974Z,10.30
2022-10-31T01:49:53.869Z,10.20
2022-10-31T01:52:53.632Z,10.10
2022-10-31T01:55:26.377Z,10.20
2022-10-31T01:57:58.949Z,10.30
2022-10-31T02:00:26.110Z,10.30
2022-10-31T02:02:53.300Z,10.30
2022-10-31T02:05:24.082Z,10.30
2022-10-31T02:07:59.688Z,10.40
2022-10-31T02:10:27.617Z,10.40
2022-10-31T02:12:58.447Z,10.50
2022-10-31T02:15:25.589Z,10.50
2022-10-31T02:17:53.044Z,10.60
2022-10-31T02:20:26.441Z,10.60
2022-10-31T02:23:17.895Z,10.50
2022-10-31T02:25:59.872Z,10.50
2022-10-31T02:29:04.534Z,10.60
2022-10-31T02:31:43.417Z,10.60
2022-10-31T02:34:36.275Z,10.60
2022-10-31T02:37:07.346Z,10.60
2022-10-31T02:39:44.942Z,10.50
2022-10-31T02:42:38.407Z,10.50
2022-10-31T02:45:29.448Z,10.40
2022-10-31T02:48:01.863Z,10.30
2022-10-31T02:50:34.352Z,10.40
2022-10-31T02:53:03.241Z,10.40
2022-10-31T02:55:30.053Z,10.40
2022-10-31T03:01:18.946Z,10.60
2022-10-31T03:04:29.501Z,10.50
2022-10-31T03:07:21.908Z,10.70
2022-10-31T03:10:18.664Z,10.70
2022-10-31T03:13:03.095Z,10.60
2022-10-31T03:15:33.402Z,10.70
2022-10-31T03:18:27.084Z,10.70
2022-10-31T03:21:17.278Z,10.70
2022-10-31T03:23:48.379Z,10.70
2022-10-31T03:26:16.544Z,10.70
2022-10-31T03:28:53.894Z,10.70
2022-10-31T03:31:26.043Z,10.60
2022-10-31T03:33:55.677Z,10.50
2022-10-31T03:36:22.811Z,10.50
2022-10-31T03:38:50.680Z,10.50
2022-10-31T03:41:22.493Z,10.50
2022-10-31T03:44:12.046Z,10.50
2022-10-31T03:46:39.287Z,10.40
2022-10-31T03:49:06.462Z,10.40
2022-10-31T03:51:45.110Z,10.40
2022-10-31T03:54:45.294Z,10.40
2022-10-31T03:57:31.103Z,10.40
2022-10-31T04:00:17.197Z,10.30
2022-10-31T04:02:51.727Z,10.40
2022-10-31T04:05:20.204Z,10.30
2022-10-31T04:07:50.780Z,10.60
2022-10-31T04:10:19.072Z,10.60
2022-10-31T04:12:52.283Z,10.50
2022-10-31T04:15:22.078Z,10.60
2022-10-31T04:17:52.379Z,10.50
2022-10-31T04:20:19.664Z,10.50
2022-10-31T04:22:46.589Z,10.40
2022-10-31T04:25:13.578Z,10.40
2022-10-31T04:27:40.487Z,10.40
2022-10-31T04:30:07.982Z,10.50
2022-10-31T04:32:34.833Z,10.70
2022-10-31T04:35:01.677Z,10.60
2022-10-31T04:37:28.538Z,10.60
2022-10-31T04:39:55.385Z,10.60
2022-10-31T04:42:22.232Z,10.60
2022-10-31T04:44:49.118Z,10.60
2022-10-31T04:47:15.975Z,10.70
2022-10-31T04:49:42.846Z,10.70
2022-10-31T04:52:09.780Z,10.60
2022-10-31T04:54:36.670Z,10.60
2022-10-31T04:57:03.624Z,10.60
2022-10-31T04:59:30.468Z,10.60
2022-10-31T05:01:57.424Z,10.70
2022-10-31T05:04:24.358Z,10.60
2022-10-31T05:06:51.255Z,10.60
2022-10-31T05:09:18.172Z,10.60
2022-10-31T05:11:44.996Z,10.50
2022-10-31T05:14:11.856Z,10.60
2022-10-31T05:16:38.699Z,10.70
2022-10-31T05:19:05.543Z,10.70
2022-10-31T05:21:32.413Z,10.60
2022-10-31T05:23:59.250Z,10.60
2022-10-31T05:26:26.270Z,10.60
2022-10-31T05:28:53.121Z,10.60
2022-10-31T05:31:19.947Z,10.60
2022-10-31T05:33:46.846Z,10.70
2022-10-31T05:36:13.802Z,10.60
2022-10-31T05:38:40.687Z,10.60
2022-10-31T05:41:07.623Z,10.60
2022-10-31T05:43:34.516Z,10.50
2022-10-31T05:46:01.381Z,10.60
2022-10-31T05:48:28.298Z,10.70
2022-10-31T05:50:55.243Z,10.70
2022-10-31T05:53:22.122Z,10.60
2022-10-31T05:55:49.076Z,10.80
2022-10-31T05:58:15.946Z,10.80
2022-10-31T06:00:42.792Z,10.80
2022-10-31T06:03:10.789Z,10.70
2022-10-31T06:05:37.721Z,10.70
2022-10-31T06:08:04.896Z,10.60
2022-10-31T06:10:32.076Z,10.60
2022-10-31T06:12:59.022Z,10.50
2022-10-31T06:15:25.939Z,10.50
2022-10-31T06:18:19.184Z,10.40
2022-10-31T06:20:46.081Z,10.30
2022-10-31T06:23:12.940Z,10.20
2022-10-31T06:25:39.816Z,10.30
2022-10-31T06:28:07.084Z,10.50
2022-10-31T06:30:33.940Z,10.50
2022-10-31T06:33:07.073Z,10.80
2022-10-31T06:35:34.253Z,11.00
2022-10-31T06:38:01.405Z,11.10
2022-10-31T06:40:28.547Z,11.10
2022-10-31T06:43:01.896Z,11.20
2022-10-31T06:45:28.952Z,11.30
2022-10-31T06:48:16.578Z,11.40
2022-10-31T06:50:43.968Z,11.60
2022-10-31T06:55:43.799Z,11.70
2022-10-31T06:58:11.883Z,11.80
2022-10-31T07:00:38.825Z,11.90
2022-10-31T07:03:08.398Z,11.80
2022-10-31T07:05:35.294Z,11.80
2022-10-31T07:08:05.716Z,11.90
2022-10-31T07:10:37.471Z,11.90
2022-10-31T07:13:11.439Z,12.00
2022-10-31T07:15:39.912Z,12.00
2022-10-31T07:18:09.409Z,12.00
2022-10-31T07:20:36.817Z,12.10
2022-10-31T07:23:04.597Z,12.00
2022-10-31T07:25:31.907Z,12.10
2022-10-31T07:27:59.173Z,12.20
2022-10-31T07:30:26.422Z,12.10
2022-10-31T07:32:53.380Z,12.10
2022-10-31T07:35:22.703Z,12.10
2022-10-31T07:37:50.549Z,12.10
2022-10-31T07:40:18.899Z,12.10
2022-10-31T07:42:49.177Z,12.10
2022-10-31T07:45:19.642Z,12.10
2022-10-31T07:47:49.355Z,12.10
2022-10-31T07:50:18.782Z,12.10
2022-10-31T07:52:45.693Z,12.00
2022-10-31T07:55:12.905Z,12.00
2022-10-31T07:57:39.897Z,12.00
2022-10-31T08:00:09.133Z,12.10
2022-10-31T08:02:35.987Z,12.20
2022-10-31T08:05:03.029Z,12.20
2022-10-31T08:07:30.517Z,12.20
2022-10-31T08:09:58.256Z,12.20
2022-10-31T08:12:25.100Z,12.30
2022-10-31T08:14:51.990Z,12.30
2022-10-31T08:17:18.936Z,12.30
2022-10-31T08:19:45.825Z,12.30
2022-10-31T08:22:12.703Z,12.30
2022-10-31T08:27:11.341Z,12.40
2022-10-31T08:29:38.150Z,12.40
2022-10-31T08:32:05.326Z,12.40
2022-10-31T08:34:32.219Z,12.50
2022-10-31T08:36:59.512Z,12.40
2022-10-31T08:39:26.429Z,12.50
2022-10-31T08:41:53.249Z,12.50
2022-10-31T08:44:20.177Z,12.50
2022-10-31T08:46:47.104Z,12.50
2022-10-31T08:49:14.011Z,12.50
2022-10-31T08:51:40.872Z,12.60
2022-10-31T08:54:07.739Z,12.50
2022-10-31T08:56:34.857Z,12.60
2022-10-31T08:59:02.360Z,12.60
2022-10-31T09:01:29.359Z,12.60
2022-10-31T09:03:56.313Z,12.70
2022-10-31T09:06:23.654Z,12.70
2022-10-31T09:08:50.580Z,12.70
2022-10-31T09:11:17.428Z,12.80
2022-10-31T09:13:44.436Z,12.80
2022-10-31T09:16:11.323Z,12.70
2022-10-31T09:18:38.271Z,12.70
2022-10-31T09:21:05.415Z,12.80
2022-10-31T09:23:33.009Z,12.70
2022-10-31T09:26:01.961Z,12.70
2022-10-31T09:28:28.790Z,12.80
2022-10-31T09:30:56.028Z,12.70
2022-10-31T09:33:23.756Z,12.70
2022-10-31T09:35:50.941Z,12.80
2022-10-31T09:38:20.388Z,12.80
2022-10-31T09:41:20.315Z,12.80
2022-10-31T09:43:47.106Z,12.90
2022-10-31T09:46:34.461Z,12.90
2022-10-31T09:49:38.882Z,12.80
2022-10-31T09:52:16.876Z,12.80
2022-10-31T09:54:52.082Z,12.90
2022-10-31T09:57:26.547Z,13.00
2022-10-31T09:59:53.513Z,13.00
2022-10-31T10:02:41.502Z,13.10
2022-10-31T10:05:40.448Z,13.20
2022-10-31T10:08:24.674Z,13.20
2022-10-31T10:11:16.305Z,13.20
2022-10-31T10:13:55.055Z,13.30
2022-10-31T10:17:04.253Z,13.30
2022-10-31T10:19:56.903Z,13.40
2022-10-31T10:22:35.909Z,13.40
2022-10-31T10:25:14.566Z,13.40
2022-10-31T10:28:13.517Z,13.40
2022-10-31T10:30:45.084Z,13.40
2022-10-31T10:33:29.377Z,13.30
2022-10-31T10:36:02.318Z,13.20
2022-10-31T10:38:40.223Z,13.20
2022-10-31T10:41:17.050Z,13.10
2022-10-31T10:43:43.968Z,13.20
2022-10-31T10:46:41.484Z,13.20
2022-10-31T10:49:24.561Z,13.20
2022-10-31T10:52:19.906Z,13.20
2022-10-31T10:55:09.307Z,13.10
2022-10-31T10:58:00.312Z,13.10
2022-10-31T11:00:32.021Z,13.20
2022-10-31T11:02:59.614Z,13.30
2022-10-31T11:05:50.134Z,13.70
2022-10-31T11:08:36.045Z,14.20
2022-10-31T11:11:09.114Z,14.90
2022-10-31T11:13:37.313Z,15.20
2022-10-31T11:16:08.700Z,15.10
2022-10-31T11:18:40.471Z,14.80
2022-10-31T11:21:20.122Z,14.90
2022-10-31T11:23:47.092Z,14.60
2022-10-31T11:26:21.837Z,14.30
2022-10-31T11:29:00.872Z,14.30
2022-10-31T11:31:28.621Z,14.60
2022-10-31T11:34:01.318Z,14.50
2022-10-31T11:36:31.960Z,15.10
2022-10-31T11:39:00.958Z,15.10
2022-10-31T11:41:43.612Z,15.10
2022-10-31T11:44:23.482Z,15.40
2022-10-31T11:46:59.846Z,15.50
2022-10-31T11:49:37.042Z,15.80
2022-10-31T11:52:09.277Z,16.00
2022-10-31T11:54:50.341Z,16.20
2022-10-31T11:57:25.010Z,15.90
2022-10-31T11:59:57.344Z,16.10
2022-10-31T12:02:24.976Z,15.40
2022-10-31T12:05:21.259Z,15.50
2022-10-31T12:07:49.990Z,15.20
2022-10-31T12:10:17.549Z,14.70
2022-10-31T12:12:44.654Z,14.60
2022-10-31T12:15:20.099Z,14.40
2022-10-31T12:18:02.930Z,14.50
2022-10-31T12:20:54.570Z,14.70
2022-10-31T12:24:13.841Z,14.70
2022-10-31T12:26:49.537Z,14.60
2022-10-31T12:29:19.195Z,14.50
2022-10-31T12:32:15.815Z,14.40
2022-10-31T12:35:22.078Z,14.30
2022-10-31T12:38:07.066Z,14.10
2022-10-31T12:41:00.351Z,14.10
2022-10-31T12:43:29.953Z,14.00
2022-10-31T12:45:59.293Z,14.00
2022-10-31T12:48:26.099Z,13.90
2022-10-31T12:51:19.883Z,14.00
2022-10-31T12:54:19.118Z,14.00
2022-10-31T12:56:58.096Z,13.90
2022-10-31T12:59:33.606Z,13.70
2022-10-31T13:02:21.099Z,13.70
2022-10-31T13:05:01.656Z,13.70
2022-10-31T13:07:53.129Z,13.70
2022-10-31T13:10:48.795Z,13.60
2022-10-31T13:13:38.640Z,13.70
2022-10-31T13:16:20.654Z,13.60
2022-10-31T13:19:22.690Z,13.60
2022-10-31T13:21:56.057Z,13.50
2022-10-31T13:24:29.268Z,13.50
2022-10-31T13:26:59.972Z,13.50
2022-10-31T13:29:34.702Z,13.50
2022-10-31T13:32:06.139Z,13.60
2022-10-31T13:34:43.947Z,13.70
2022-10-31T13:37:18.993Z,13.70
2022-10-31T13:40:07.275Z,13.70
2022-10-31T13:43:18.814Z,13.80
2022-10-31T13:45:54.612Z,13.90
2022-10-31T13:48:37.975Z,13.90
2022-10-31T13:51:10.909Z,13.90
2022-10-31T13:53:45.526Z,13.90
2022-10-31T13:56:19.134Z,13.90
2022-10-31T13:59:01.311Z,14.00
2022-10-31T14:01:30.623Z,13.90
2022-10-31T14:04:13.066Z,13.80
2022-10-31T14:06:46.513Z,13.70
2022-10-31T14:09:31.763Z,13.70
2022-10-31T14:12:15.202Z,13.60
2022-10-31T14:14:48.908Z,13.60
2022-10-31T14:17:28.592Z,13.70
2022-10-31T14:20:23.403Z,13.60
2022-10-31T14:22:50.387Z,13.50
2022-10-31T14:25:26.611Z,13.50
2022-10-31T14:27:54.114Z,13.50
2022-10-31T14:30:26.741Z,13.40
2022-10-31T14:33:10.284Z,13.40
2022-10-31T14:36:05.474Z,13.40
2022-10-31T14:38:40.002Z,13.40
2022-10-31T14:41:22.164Z,13.40
2022-10-31T14:44:11.086Z,13.50
2022-10-31T14:47:00.043Z,13.50
2022-10-31T14:49:50.392Z,13.40
2022-10-31T14:52:19.424Z,13.40
2022-10-31T14:54:52.065Z,13.40
2022-10-31T14:57:25.947Z,13.40
2022-10-31T15:00:00.855Z,13.40
2022-10-31T15:02:37.972Z,13.40
2022-10-31T15:05:12.672Z,13.40
2022-10-31T15:07:53.177Z,13.40
2022-10-31T15:10:33.165Z,13.40
2022-10-31T15:16:48.466Z,13.40
2022-10-31T15:19:22.116Z,13.40
2022-10-31T15:21:52.413Z,13.40
2022-10-31T15:24:19.806Z,13.40
2022-10-31T15:26:52.700Z,13.40
2022-10-31T15:29:23.671Z,13.40
2022-10-31T15:31:55.666Z,13.40
2022-10-31T15:34:25.507Z,13.40
2022-10-31T15:36:52.566Z,13.40
2022-10-31T15:39:20.063Z,13.40
2022-10-31T15:41:55.138Z,13.30
2022-10-31T15:44:34.576Z,13.30
2022-10-31T15:47:05.582Z,13.30
2022-10-31T15:49:42.084Z,13.20
2022-10-31T15:52:11.747Z,13.20
2022-10-31T15:54:51.225Z,13.20
2022-10-31T15:57:18.446Z,13.20
2022-10-31T15:59:49.008Z,13.10
2022-10-31T16:02:20.306Z,13.10
2022-10-31T16:05:15.255Z,13.10
2022-10-31T16:07:50.590Z,13.10
2022-10-31T16:10:28.012Z,13.10
2022-10-31T16:12:55.439Z,13.00
2022-10-31T16:15:22.778Z,13.10
2022-10-31T16:17:52.561Z,13.10
2022-10-31T16:20:53.706Z,13.10
2022-10-31T16:23:22.036Z,13.10
2022-10-31T16:25:49.650Z,13.20
2022-10-31T16:28:25.522Z,13.20
2022-10-31T16:30:57.349Z,13.20
2022-10-31T16:33:24.235Z,13.20
2022-10-31T16:35:56.025Z,13.10
2022-10-31T16:38:31.309Z,13.10
2022-10-31T16:40:58.351Z,13.10
2022-10-31T16:43:25.250Z,13.10
2022-10-31T16:45:53.431Z,13.00
2022-10-31T16:48:23.110Z,13.00
2022-10-31T16:50:51.468Z,13.00
2022-10-31T16:53:18.624Z,12.90
2022-10-31T16:56:06.050Z,12.90
2022-10-31T16:58:35.271Z,12.90
2022-10-31T17:01:07.740Z,13.00
2022-10-31T17:03:34.743Z,12.90
2022-10-31T17:06:01.563Z,12.90
2022-10-31T17:08:28.440Z,12.90
2022-10-31T17:10:57.429Z,13.00
2022-10-31T17:13:27.712Z,13.00
2022-10-31T17:15:56.780Z,12.90
2022-10-31T17:18:27.537Z,13.00
2022-10-31T17:21:00.249Z,13.00
2022-10-31T17:23:28.717Z,13.00
2022-10-31T17:25:56.434Z,13.00
2022-10-31T17:28:23.345Z,13.00
2022-10-31T17:30:50.315Z,13.00
2022-10-31T17:33:17.620Z,13.00
2022-10-31T17:35:45.265Z,13.00
2022-10-31T17:38:12.739Z,13.00
2022-10-31T17:40:42.313Z,13.10
2022-10-31T17:43:10.727Z,13.10
2022-10-31T17:45:40.208Z,13.10
2022-10-31T17:48:07.964Z,13.00
2022-10-31T17:50:35.050Z,13.00
2022-10-31T17:53:02.207Z,13.00
2022-10-31T17:55:32.925Z,12.90
2022-10-31T17:58:04.272Z,12.90
2022-10-31T18:00:31.261Z,12.90
2022-10-31T18:02:58.306Z,12.90
2022-10-31T18:05:25.446Z,12.90
2022-10-31T18:07:52.341Z,12.90
2022-10-31T18:10:19.262Z,12.90
2022-10-31T18:12:46.167Z,12.90
2022-10-31T18:15:13.096Z,12.90
2022-10-31T18:17:42.116Z,12.90
2022-10-31T18:20:10.285Z,12.80
2022-10-31T18:22:37.347Z,12.80
2022-10-31T18:25:05.251Z,12.80
2022-10-31T18:27:32.151Z,12.80
2022-10-31T18:29:59.100Z,12.80
2022-10-31T18:32:26.025Z,12.70
2022-10-31T18:34:52.907Z,12.70
2022-10-31T18:37:19.726Z,12.70
2022-10-31T18:39:46.606Z,12.70
2022-10-31T18:42:13.493Z,12.70
2022-10-31T18:44:40.362Z,12.70
2022-10-31T18:47:07.238Z,12.70
2022-10-31T18:49:34.250Z,12.70
2022-10-31T18:52:01.550Z,12.70
2022-10-31T18:54:28.452Z,12.60
2022-10-31T18:56:56.018Z,12.70
2022-10-31T18:59:22.908Z,12.70
2022-10-31T19:01:49.898Z,12.70
2022-10-31T19:04:16.903Z,12.60
2022-10-31T19:06:43.906Z,12.60
2022-10-31T19:09:11.159Z,12.70
2022-10-31T19:11:39.144Z,12.70
2022-10-31T19:14:08.527Z,12.60
2022-10-31T19:16:35.688Z,12.60
2022-10-31T19:19:02.866Z,12.60
2022-10-31T19:21:31.242Z,12.50
2022-10-31T19:23:59.113Z,12.50
2022-10-31T19:26:27.549Z,12.50
2022-10-31T19:28:56.303Z,12.50
2022-10-31T19:31:23.854Z,12.50
2022-10-31T19:33:51.007Z,12.50
2022-10-31T19:36:19.705Z,12.50
2022-10-31T19:38:49.174Z,12.60
2022-10-31T19:41:27.152Z,12.60
2022-10-31T19:43:54.620Z,12.60
2022-10-31T19:46:40.453Z,12.60
2022-10-31T19:49:10.498Z,12.60
2022-10-31T19:51:37.384Z,12.70
2022-10-31T19:54:04.434Z,12.60
2022-10-31T19:56:31.274Z,12.60
2022-10-31T19:58:59.872Z,12.60
2022-10-31T20:01:26.954Z,12.60
2022-10-31T20:03:53.858Z,12.60
2022-10-31T20:06:26.880Z,12.70
2022-10-31T20:08:56.135Z,12.70
2022-10-31T20:11:24.865Z,12.70
2022-10-31T20:13:52.046Z,12.70
2022-10-31T20:16:18.888Z,12.70
2022-10-31T20:18:47.013Z,12.70
2022-10-31T20:21:17.942Z,12.70
2022-10-31T20:23:45.994Z,12.70
2022-10-31T20:26:15.771Z,12.70
2022-10-31T20:28:43.670Z,12.70
2022-10-31T20:31:15.022Z,12.70
2022-10-31T20:33:42.763Z,12.70
2022-10-31T20:36:10.526Z,12.70
2022-10-31T20:38:42.275Z,12.70
2022-10-31T20:41:10.758Z,12.70
2022-10-31T20:43:38.498Z,12.70
2022-10-31T20:46:15.264Z,12.70
2022-10-31T20:48:42.695Z,12.70
2022-10-31T20:51:18.565Z,12.70
2022-10-31T20:53:45.900Z,12.70
2022-10-31T20:56:14.894Z,12.70
2022-10-31T20:58:43.192Z,12.60
2022-10-31T21:01:18.993Z,12.60
2022-10-31T21:03:46.429Z,12.70
2022-10-31T21:06:14.187Z,12.70
2022-10-31T21:08:42.308Z,12.70
2022-10-31T21:11:11.762Z,12.70
2022-10-31T21:13:41.319Z,12.70
2022-10-31T21:16:13.588Z,12.70
2022-10-31T21:18:42.095Z,12.70
2022-10-31T21:21:10.061Z,12.70
2022-10-31T21:23:37.390Z,12.70
2022-10-31T21:26:33.593Z,12.70
2022-10-31T21:29:01.548Z,12.80
2022-10-31T21:31:28.929Z,12.80
2022-10-31T21:33:55.959Z,12.70
2022-10-31T21:36:22.877Z,12.70
2022-10-31T21:38:51.766Z,12.80
2022-10-31T21:41:19.670Z,12.80
2022-10-31T21:43:49.172Z,12.70
2022-10-31T21:46:21.553Z,12.70
2022-10-31T21:48:48.684Z,12.60
2022-10-31T21:51:21.277Z,12.60
2022-10-31T21:54:21.017Z,12.60
2022-10-31T21:56:48.103Z,12.60
2022-10-31T21:59:15.006Z,12.60
2022-10-31T22:01:42.058Z,12.60
2022-10-31T22:04:09.348Z,12.60
2022-10-31T22:06:36.637Z,12.60
2022-10-31T22:09:06.124Z,12.60
2022-10-31T22:11:34.506Z,12.60
2022-10-31T22:14:01.881Z,12.60
2022-10-31T22:16:30.298Z,12.60
2022-10-31T22:18:59.508Z,12.60
2022-10-31T22:21:28.289Z,12.50
2022-10-31T22:24:00.479Z,12.50
2022-10-31T22:26:30.474Z,12.50
2022-10-31T22:29:02.081Z,12.50
2022-10-31T22:31:30.379Z,12.50
2022-10-31T22:33:57.954Z,12.50
2022-10-31T22:36:30.117Z,12.40
2022-10-31T22:38:57.635Z,12.40
2022-10-31T22:41:29.931Z,12.40
2022-10-31T22:43:57.817Z,12.40
2022-10-31T22:46:27.453Z,12.40
2022-10-31T22:48:59.468Z,12.40
2022-10-31T22:51:32.171Z,12.40
2022-10-31T22:53:59.511Z,12.30
2022-10-31T22:56:29.308Z,12.30
2022-10-31T22:58:57.230Z,12.30
2022-10-31T23:01:30.439Z,12.30
2022-10-31T23:03:57.486Z,12.30
2022-10-31T23:06:27.113Z,12.30
2022-10-31T23:08:54.490Z,12.30
2022-10-31T23:11:33.147Z,12.30
2022-10-31T23:14:10.873Z,12.30
2022-10-31T23:16:47.995Z,12.30
2022-10-31T23:19:23.324Z,12.30
2022-10-31T23:21:56.426Z,12.30
2022-10-31T23:24:36.708Z,12.30
2022-10-31T23:27:24.140Z,12.30
2022-10-31T23:29:55.950Z,12.40
2022-10-31T23:32:32.957Z,12.30
2022-10-31T23:35:02.029Z,12.30
2022-10-31T23:37:31.672Z,12.40
2022-10-31T23:39:59.030Z,12.40
2022-10-31T23:42:27.119Z,12.40
2022-10-31T23:44:54.521Z,12.50
2022-10-31T23:47:22.066Z,12.50
2022-10-31T23:49:49.386Z,12.50
2022-10-31T23:52:16.759Z,12.60
2022-10-31T23:54:44.345Z,12.50
2022-10-31T23:57:13.119Z,12.50
2022-10-31T23:59:40.008Z,12.50
